Pagrindinis puslapis
METAR-TAF:

METAR-TAF

Oro uostai :

Hanojus, Vietnamas

platuma: 21-01N, ilguma: 105-48E, Aukštis: 6 m

Dabartinis oras

Ataskaita buvo paskelbta 16 minutes, ne 21:30 UTC
Vėjas 3 kt iš Vakarų/Šiaurės Vakarų
Temperatūra 10°C
Drėgmė 82%
Slėgis 1019 hPa
Matomumas: 6000 m

METAR: VVNB 092130Z 29003KT 6000 NSC 10/07 Q1019 NOSIG

Laikas: 04:46 (21:46 UTC)

Prognozė

Ataskaita buvo paskelbta 4 valandos ir 46 minutes, ne 17:00 UTC
Prognozė galioja nuo 09 metu 18 UTC su 10 metu 18 UTC
Vėjas 2 kt nuo kintamojo kryptimis
Matomumas: 6000 m
Tapsmas
nuo 09 metu 20 UTC su 09 metu 22 UTC
Matomumas: 4000 m
rūkana
Tapsmas
nuo 10 metu 00 UTC su 10 metu 01 UTC
Matomumas: 6000 m

TAF: VVNB 091700Z 0918/1018 VRB02KT 6000 NSC BECMG 0920/0922 4000 BR BECMG 1000/1001 6000 NSW

Orai ataskaitas ir orų prognozės (METAR, TAF).

turimą stotys yra geltonos ir raudonos taškus žemėlapyje.

Perkelti pele per norėdami pamatyti stoties vardą.

Tada spustelėkite, norėdami matyti oro stebėjimo ir prognozės.

Norėdami pakeisti žemėlapį: spustelėkite ant žalios mygtukų su juodo kryžiaus žemyn,; žalią mygtuką su brūkšneliu, jei norite nutolinti; arba žalių rodyklių gretimoms žemėlapius.


METAR-TAF: